Time;durP1;ratioP1;P1;durP2;ratioP2;P2;SDS_P1;SDS_P2;PMS_P1;PMS_P2;Temp;Humidity;BMP_temperature;BMP_pressure;BME280_temperature;BME280_humidity;BME280_pressure;Samples;Min_cycle;Max_cycle;Signal;HPM_P1;HPM_P2
2023/07/31 00:00:06;;;;;;;9.50;2.67;;;16.30;99.90;;;;;;5030012;28;20044;-52
2023/07/31 00:02:31;;;;;;;7.75;2.90;;;16.40;99.90;;;;;;5014163;28;20113;-51
2023/07/31 00:04:57;;;;;;;6.85;2.35;;;16.40;99.90;;;;;;5014416;28;20118;-49
2023/07/31 00:07:23;;;;;;;6.97;2.15;;;16.40;99.90;;;;;;5014708;28;20501;-53
2023/07/31 00:09:48;;;;;;;7.20;2.72;;;16.40;99.90;;;;;;5014602;28;20367;-53
2023/07/31 00:12:14;;;;;;;5.80;2.28;;;16.40;99.90;;;;;;5014156;28;20026;-52
2023/07/31 00:14:39;;;;;;;7.55;2.40;;;16.40;99.90;;;;;;5014080;28;20076;-50
2023/07/31 00:17:05;;;;;;;9.15;2.78;;;16.40;99.90;;;;;;5014440;28;20457;-52
2023/07/31 00:19:31;;;;;;;6.95;2.72;;;16.40;99.90;;;;;;5014300;28;20092;-51
2023/07/31 00:21:56;;;;;;;6.32;2.50;;;16.50;99.90;;;;;;5014197;28;20120;-54
2023/07/31 00:24:22;;;;;;;10.48;2.58;;;16.50;99.90;;;;;;5013923;28;20021;-54
2023/07/31 00:26:47;;;;;;;6.82;2.80;;;16.50;99.90;;;;;;5014496;28;20034;-51
2023/07/31 00:29:13;;;;;;;8.32;2.47;;;16.40;99.90;;;;;;5014057;28;20026;-54
2023/07/31 00:31:39;;;;;;;7.57;2.55;;;16.50;99.90;;;;;;5012820;28;20394;-50
2023/07/31 00:34:04;;;;;;;8.60;2.95;;;16.50;99.90;;;;;;5012713;28;20065;-52
2023/07/31 00:36:30;;;;;;;5.60;2.40;;;16.50;99.90;;;;;;5012782;28;20030;-51
2023/07/31 00:38:55;;;;;;;7.55;2.97;;;16.50;99.90;;;;;;5012665;28;20042;-53
2023/07/31 00:41:21;;;;;;;11.05;3.20;;;16.50;99.90;;;;;;5012624;28;20033;-54
2023/07/31 00:43:48;;;;;;;9.57;2.70;;;16.50;99.90;;;;;;5013575;28;20116;-49
2023/07/31 00:46:13;;;;;;;7.28;2.60;;;16.60;99.90;;;;;;5012503;28;20034;-53
2023/07/31 00:48:40;;;;;;;11.02;2.20;;;16.60;99.90;;;;;;5013726;28;20037;-53
2023/07/31 00:51:07;;;;;;;8.75;2.40;;;16.50;99.90;;;;;;5013909;28;20029;-51
2023/07/31 00:53:35;;;;;;;8.93;2.17;;;16.60;99.90;;;;;;5012584;28;20032;-52
2023/07/31 00:56:01;;;;;;;7.70;2.35;;;16.60;99.90;;;;;;5012509;28;20467;-49
2023/07/31 00:58:26;;;;;;;8.60;2.30;;;16.60;99.90;;;;;;5014087;28;20058;-50
2023/07/31 01:00:52;;;;;;;9.35;2.72;;;16.60;99.90;;;;;;5012865;28;20443;-53
2023/07/31 01:03:18;;;;;;;7.55;2.72;;;16.70;99.90;;;;;;5012450;28;20112;-51
2023/07/31 01:05:54;;;;;;;9.20;2.80;;;16.70;99.90;;;;;;5012222;28;20064;-52
2023/07/31 01:08:38;;;;;;;6.55;2.55;;;16.70;99.90;;;;;;5012350;28;20533;-53
2023/07/31 01:11:21;;;;;;;7.45;2.55;;;16.70;99.90;;;;;;5012668;28;20124;-49
2023/07/31 01:13:47;;;;;;;9.73;2.03;;;16.60;99.90;;;;;;5012248;28;20042;-51
2023/07/31 01:16:13;;;;;;;8.00;2.15;;;16.60;99.90;;;;;;5013563;28;20029;-49
2023/07/31 01:18:38;;;;;;;7.22;2.47;;;16.70;99.90;;;;;;5012540;28;20030;-49
2023/07/31 01:21:29;;;;;;;10.88;2.78;;;16.70;99.90;;;;;;5013686;28;20038;-53
2023/07/31 01:24:23;;;;;;;5.20;2.28;;;16.70;99.90;;;;;;5011832;28;20044;-53
2023/07/31 01:27:02;;;;;;;11.30;2.97;;;16.70;99.90;;;;;;5013187;28;20084;-52
2023/07/31 01:29:48;;;;;;;8.50;2.15;;;16.70;99.90;;;;;;5011798;28;20103;-53
2023/07/31 01:32:17;;;;;;;8.85;2.22;;;16.70;99.90;;;;;;5011593;28;20030;-53
2023/07/31 01:34:45;;;;;;;5.45;1.77;;;16.70;99.90;;;;;;5013129;28;20033;-53
2023/07/31 01:37:11;;;;;;;10.95;2.25;;;16.70;99.90;;;;;;5028450;28;20045;-53
2023/07/31 01:39:36;;;;;;;8.10;2.72;;;16.70;99.90;;;;;;5013125;28;20537;-53
2023/07/31 01:42:03;;;;;;;6.05;2.20;;;16.70;99.90;;;;;;5028026;28;20502;-51
2023/07/31 01:44:28;;;;;;;5.65;2.20;;;16.70;99.90;;;;;;5011127;28;20030;-50
2023/07/31 01:46:54;;;;;;;6.82;2.03;;;16.70;99.90;;;;;;5011607;28;20025;-53
2023/07/31 01:49:20;;;;;;;6.43;2.30;;;16.70;99.90;;;;;;5012373;28;20478;-51
2023/07/31 01:51:45;;;;;;;6.50;1.83;;;16.70;99.90;;;;;;5011201;28;20051;-53
2023/07/31 01:54:11;;;;;;;7.50;2.15;;;16.70;99.90;;;;;;5011201;28;20034;-53
2023/07/31 01:56:36;;;;;;;7.15;2.22;;;16.70;99.90;;;;;;5011594;28;20045;-51
2023/07/31 01:59:02;;;;;;;6.85;2.30;;;16.70;99.90;;;;;;5011252;28;20087;-50
2023/07/31 02:01:28;;;;;;;4.28;1.75;;;16.70;99.90;;;;;;5027735;28;20495;-51
2023/07/31 02:03:54;;;;;;;6.28;2.13;;;16.70;99.90;;;;;;5012153;28;20034;-52
2023/07/31 02:06:22;;;;;;;6.90;2.08;;;16.70;99.90;;;;;;5012358;28;20444;-51
2023/07/31 02:08:48;;;;;;;8.35;2.80;;;16.70;99.90;;;;;;5011092;28;20506;-48
2023/07/31 02:11:14;;;;;;;7.28;2.58;;;16.70;99.90;;;;;;5011018;28;20030;-52
2023/07/31 02:13:40;;;;;;;8.60;2.83;;;16.80;99.90;;;;;;5012064;28;20022;-53
2023/07/31 02:16:05;;;;;;;6.47;2.17;;;16.80;99.90;;;;;;5012198;28;20109;-51
2023/07/31 02:18:31;;;;;;;4.28;1.88;;;16.80;99.90;;;;;;5011028;28;20038;-51
2023/07/31 02:20:56;;;;;;;5.32;2.10;;;16.80;99.90;;;;;;5011005;28;20375;-50
2023/07/31 02:23:22;;;;;;;6.57;1.90;;;16.80;99.90;;;;;;5010608;28;20029;-52
2023/07/31 02:25:47;;;;;;;6.30;2.17;;;16.80;99.90;;;;;;5010767;28;20088;-50
2023/07/31 02:28:13;;;;;;;7.82;2.47;;;16.80;99.90;;;;;;5010571;28;20046;-53
2023/07/31 02:30:39;;;;;;;8.52;2.50;;;16.80;99.90;;;;;;5010573;28;20426;-53
2023/07/31 02:33:05;;;;;;;7.72;3.05;;;16.80;99.90;;;;;;5011789;28;20058;-54
2023/07/31 02:35:31;;;;;;;8.15;2.30;;;16.80;99.90;;;;;;5010559;28;20084;-53
2023/07/31 02:37:57;;;;;;;8.35;2.28;;;16.80;99.90;;;;;;5010651;28;20041;-53
2023/07/31 02:40:23;;;;;;;12.70;3.40;;;16.80;99.90;;;;;;5011930;28;20070;-54
2023/07/31 02:42:48;;;;;;;6.78;2.75;;;16.80;99.90;;;;;;5011693;28;20034;-50
2023/07/31 02:45:14;;;;;;;9.65;2.45;;;16.80;99.90;;;;;;5010473;28;20044;-51
2023/07/31 02:47:40;;;;;;;9.55;2.42;;;16.80;99.90;;;;;;5011806;28;20033;-53
2023/07/31 02:50:07;;;;;;;6.88;2.47;;;16.90;99.90;;;;;;5010464;28;20409;-52
2023/07/31 02:52:32;;;;;;;8.70;2.13;;;16.80;99.90;;;;;;5010235;28;20034;-53
2023/07/31 02:54:58;;;;;;;9.90;2.05;;;16.90;99.90;;;;;;5010276;28;20037;-50
2023/07/31 02:57:24;;;;;;;8.27;2.28;;;16.90;99.90;;;;;;5011561;28;20026;-48
2023/07/31 02:59:49;;;;;;;8.55;2.67;;;16.90;99.90;;;;;;5026729;28;20030;-50
2023/07/31 03:02:15;;;;;;;8.38;2.20;;;16.90;99.90;;;;;;5009087;28;20407;-49
2023/07/31 03:04:41;;;;;;;7.07;1.90;;;16.90;99.90;;;;;;5010006;28;20057;-50
2023/07/31 03:07:07;;;;;;;10.27;3.20;;;16.90;99.90;;;;;;5009965;28;20030;-51
2023/07/31 03:09:32;;;;;;;5.85;1.98;;;16.90;99.90;;;;;;5010194;28;20038;-53
2023/07/31 03:11:58;;;;;;;10.95;2.70;;;16.90;99.90;;;;;;5009756;28;20497;-54
2023/07/31 03:14:26;;;;;;;7.07;1.95;;;17.00;99.90;;;;;;5009779;28;20037;-49
2023/07/31 03:16:52;;;;;;;7.22;2.60;;;16.90;99.90;;;;;;5011414;28;20041;-54
2023/07/31 03:19:17;;;;;;;7.95;2.45;;;17.00;99.90;;;;;;5026779;28;20406;-49
2023/07/31 03:21:43;;;;;;;6.65;2.65;;;17.00;99.90;;;;;;5011282;28;20049;-53
2023/07/31 03:24:09;;;;;;;7.70;2.85;;;17.00;99.90;;;;;;5011168;28;20034;-53
2023/07/31 03:26:36;;;;;;;8.52;2.60;;;17.00;99.90;;;;;;5010242;28;20034;-51
2023/07/31 03:29:02;;;;;;;4.78;1.90;;;17.00;99.90;;;;;;5026472;28;20030;-52
2023/07/31 03:31:28;;;;;;;7.55;2.40;;;17.00;99.90;;;;;;5010081;28;20449;-49
2023/07/31 03:33:54;;;;;;;5.78;2.63;;;17.10;99.90;;;;;;5011280;28;20030;-52
2023/07/31 03:36:20;;;;;;;5.18;2.30;;;17.10;99.90;;;;;;5009951;28;20088;-50
2023/07/31 03:38:46;;;;;;;9.60;3.00;;;17.20;99.90;;;;;;5010269;28;20037;-51
2023/07/31 03:41:12;;;;;;;6.47;2.67;;;17.20;99.90;;;;;;5011617;28;20120;-53
2023/07/31 03:43:37;;;;;;;7.72;2.70;;;17.10;99.90;;;;;;5009680;28;20068;-49
2023/07/31 03:46:03;;;;;;;7.63;2.40;;;17.20;99.90;;;;;;5011338;28;20430;-53
2023/07/31 03:48:30;;;;;;;8.02;2.72;;;17.20;99.90;;;;;;5009773;28;20030;-53
2023/07/31 03:50:56;;;;;;;5.72;2.03;;;17.30;99.90;;;;;;5011723;28;20486;-50
2023/07/31 03:53:21;;;;;;;7.20;2.35;;;17.30;99.90;;;;;;5009686;28;20426;-50
2023/07/31 03:55:47;;;;;;;8.15;2.53;;;17.30;99.90;;;;;;5011154;28;20033;-50
2023/07/31 03:58:12;;;;;;;6.38;2.05;;;17.20;99.90;;;;;;5010894;28;20055;-52
2023/07/31 04:00:40;;;;;;;8.88;2.65;;;17.30;99.90;;;;;;5011024;28;20040;-52
2023/07/31 04:03:06;;;;;;;9.48;2.40;;;17.30;99.90;;;;;;5010872;28;20026;-48
2023/07/31 04:05:32;;;;;;;9.77;3.28;;;17.30;99.90;;;;;;5010627;28;20041;-50
2023/07/31 04:07:58;;;;;;;9.18;2.60;;;17.30;99.90;;;;;;5010746;28;20124;-51
2023/07/31 04:10:23;;;;;;;9.00;2.72;;;17.30;99.90;;;;;;5010757;28;20109;-49
2023/07/31 04:12:49;;;;;;;8.30;3.22;;;17.40;99.90;;;;;;5011530;28;20469;-53
2023/07/31 04:15:15;;;;;;;10.00;3.58;;;17.40;99.90;;;;;;5014169;28;20038;-49
2023/07/31 04:17:40;;;;;;;5.97;2.80;;;17.40;99.90;;;;;;5014321;28;20026;-49
2023/07/31 04:20:06;;;;;;;7.70;3.53;;;17.50;99.90;;;;;;5014461;28;20403;-48
2023/07/31 04:22:32;;;;;;;7.05;2.50;;;17.50;99.90;;;;;;5013723;28;20029;-50
2023/07/31 04:24:58;;;;;;;11.85;2.65;;;17.40;99.90;;;;;;5013741;28;20030;-49
2023/07/31 04:27:23;;;;;;;11.60;3.20;;;17.50;99.90;;;;;;5013865;28;20041;-48
2023/07/31 04:29:49;;;;;;;7.78;2.85;;;17.40;99.90;;;;;;5013743;28;20036;-49
2023/07/31 04:32:17;;;;;;;11.35;3.72;;;17.50;99.90;;;;;;5013662;28;20065;-53
2023/07/31 04:34:43;;;;;;;11.43;4.30;;;17.50;99.90;;;;;;5014042;28;20036;-53
2023/07/31 04:37:09;;;;;;;13.48;5.57;;;17.50;99.90;;;;;;5014039;28;20433;-52
2023/07/31 04:39:34;;;;;;;13.90;6.55;;;17.60;99.90;;;;;;5014197;28;20459;-53
2023/07/31 04:42:00;;;;;;;8.82;3.42;;;17.50;99.90;;;;;;5013688;28;20034;-53
2023/07/31 04:44:26;;;;;;;13.00;5.05;;;17.50;99.90;;;;;;5013671;28;20501;-52
2023/07/31 04:46:51;;;;;;;9.60;3.35;;;17.50;99.90;;;;;;5014025;28;20125;-51
2023/07/31 04:49:17;;;;;;;12.25;4.72;;;17.50;99.90;;;;;;5013946;28;20034;-53
2023/07/31 04:51:42;;;;;;;16.48;7.22;;;17.40;99.90;;;;;;5013934;28;20033;-54
2023/07/31 04:54:08;;;;;;;9.60;2.78;;;17.50;99.90;;;;;;5012203;28;20060;-49
2023/07/31 04:56:34;;;;;;;6.22;2.60;;;17.50;99.90;;;;;;5013762;28;20030;-52
2023/07/31 04:58:59;;;;;;;10.52;3.88;;;17.40;99.90;;;;;;5012350;28;20030;-48
2023/07/31 05:01:25;;;;;;;5.97;2.45;;;17.40;99.90;;;;;;5013695;28;20502;-54
2023/07/31 05:03:51;;;;;;;6.00;2.90;;;17.50;99.90;;;;;;5013421;28;20034;-53
2023/07/31 05:06:16;;;;;;;4.95;2.25;;;17.50;99.90;;;;;;5013397;28;20026;-49
2023/07/31 05:08:42;;;;;;;3.83;2.15;;;17.50;99.90;;;;;;5013973;28;20052;-50
2023/07/31 05:11:08;;;;;;;6.15;2.35;;;17.40;99.90;;;;;;5013605;28;20037;-53
2023/07/31 05:13:33;;;;;;;6.90;2.50;;;17.40;99.90;;;;;;5013382;28;20037;-53
2023/07/31 05:15:59;;;;;;;9.35;3.03;;;17.40;99.90;;;;;;5013238;28;20022;-53
2023/07/31 05:18:24;;;;;;;7.50;3.15;;;17.40;99.90;;;;;;5013278;28;20026;-53
2023/07/31 05:20:50;;;;;;;8.65;2.55;;;17.40;99.90;;;;;;5013288;28;20026;-51
2023/07/31 05:23:15;;;;;;;8.43;2.55;;;17.50;99.90;;;;;;5012678;28;20030;-49
2023/07/31 05:25:41;;;;;;;10.35;2.85;;;17.40;99.90;;;;;;5011991;28;20036;-51
2023/07/31 05:28:07;;;;;;;5.88;2.22;;;17.50;99.90;;;;;;5012753;28;20498;-50
2023/07/31 05:30:32;;;;;;;6.70;2.70;;;17.50;99.90;;;;;;5013092;28;20060;-53
2023/07/31 05:32:58;;;;;;;4.80;2.50;;;17.50;99.90;;;;;;5012826;28;20033;-53
2023/07/31 05:35:23;;;;;;;8.27;2.90;;;17.40;99.90;;;;;;5013123;28;20029;-52
2023/07/31 05:37:49;;;;;;;7.65;2.90;;;17.40;99.90;;;;;;5013044;28;20033;-50
2023/07/31 05:40:15;;;;;;;8.23;2.45;;;17.50;99.90;;;;;;5013031;28;20322;-54
2023/07/31 05:42:40;;;;;;;5.63;2.42;;;17.50;99.90;;;;;;5012829;28;20125;-54
2023/07/31 05:45:07;;;;;;;6.43;2.63;;;17.50;99.90;;;;;;5012387;28;20058;-54
2023/07/31 05:47:33;;;;;;;6.55;2.65;;;17.50;99.90;;;;;;5012946;28;20095;-52
2023/07/31 05:49:59;;;;;;;8.57;3.05;;;17.50;99.90;;;;;;5012868;28;20044;-55
2023/07/31 05:52:24;;;;;;;6.70;2.60;;;17.50;99.90;;;;;;5012718;28;20026;-52
2023/07/31 05:54:50;;;;;;;6.85;2.78;;;17.50;99.90;;;;;;5012361;28;20493;-54
2023/07/31 05:57:16;;;;;;;6.05;2.75;;;17.50;99.90;;;;;;5012713;28;20018;-52
2023/07/31 05:59:41;;;;;;;7.03;3.22;;;17.50;99.90;;;;;;5012627;28;20030;-54
2023/07/31 06:02:07;;;;;;;4.57;2.45;;;17.60;99.90;;;;;;5012580;28;20045;-53
2023/07/31 06:04:33;;;;;;;10.10;2.85;;;17.60;99.90;;;;;;5012485;28;20054;-51
2023/07/31 06:06:58;;;;;;;5.47;2.38;;;17.60;99.90;;;;;;5012621;28;20033;-50
2023/07/31 06:09:25;;;;;;;5.20;2.40;;;17.70;99.90;;;;;;5012673;28;20511;-54
2023/07/31 06:11:51;;;;;;;5.43;2.75;;;17.70;99.90;;;;;;5012438;28;20065;-52
2023/07/31 06:14:17;;;;;;;8.07;2.92;;;17.70;99.90;;;;;;5012351;28;20045;-53
2023/07/31 06:16:43;;;;;;;7.18;2.72;;;17.70;99.90;;;;;;5027942;28;20500;-52
2023/07/31 06:19:09;;;;;;;4.63;2.13;;;17.60;99.90;;;;;;5012386;28;20033;-53
2023/07/31 06:21:37;;;;;;;5.63;2.92;;;17.60;99.90;;;;;;5012307;28;20441;-53
2023/07/31 06:24:03;;;;;;;8.45;3.30;;;17.60;99.90;;;;;;5012122;28;20038;-50
2023/07/31 06:26:29;;;;;;;5.70;2.63;;;17.50;99.90;;;;;;5012533;28;20117;-52
2023/07/31 06:28:56;;;;;;;5.20;2.65;;;17.50;99.90;;;;;;5011826;28;20050;-52
2023/07/31 06:31:22;;;;;;;5.50;2.50;;;17.40;99.90;;;;;;5012013;28;20113;-54
2023/07/31 06:33:52;;;;;;;7.95;2.80;;;17.40;99.90;;;;;;5011945;28;20029;-50
2023/07/31 06:36:18;;;;;;;8.50;3.00;;;17.40;99.90;;;;;;5011893;28;20029;-52
2023/07/31 06:38:43;;;;;;;5.80;3.00;;;17.30;99.90;;;;;;5011962;28;20152;-54
2023/07/31 06:41:10;;;;;;;6.75;2.88;;;17.30;99.90;;;;;;5011995;28;20474;-53
2023/07/31 06:43:36;;;;;;;6.13;3.15;;;17.30;99.90;;;;;;5011848;28;20540;-54
2023/07/31 06:46:09;;;;;;;8.93;2.97;;;17.30;99.90;;;;;;5011727;28;20030;-53
2023/07/31 06:48:37;;;;;;;6.30;2.60;;;17.30;99.90;;;;;;5011644;28;20567;-51
2023/07/31 06:51:02;;;;;;;9.90;3.08;;;17.30;99.90;;;;;;5011904;28;20041;-52
2023/07/31 06:53:28;;;;;;;7.15;3.13;;;17.20;99.90;;;;;;5011899;28;20025;-52
2023/07/31 06:55:54;;;;;;;8.07;2.80;;;17.20;99.90;;;;;;5011495;28;20022;-50
2023/07/31 06:58:20;;;;;;;5.88;3.05;;;17.20;99.90;;;;;;5011578;28;20080;-51
2023/07/31 07:00:46;;;;;;;6.35;2.92;;;17.20;99.90;;;;;;5011688;28;20037;-52
2023/07/31 07:03:14;;;;;;;6.30;3.20;;;17.20;99.90;;;;;;5011415;28;20029;-53
2023/07/31 07:05:40;;;;;;;6.60;3.75;;;17.10;99.90;;;;;;5011530;28;20061;-52
2023/07/31 07:08:05;;;;;;;7.63;3.28;;;17.10;99.90;;;;;;5011679;28;20084;-53
2023/07/31 07:10:31;;;;;;;8.40;4.00;;;17.10;99.90;;;;;;5011383;28;20034;-53
2023/07/31 07:12:57;;;;;;;8.15;3.33;;;17.10;99.90;;;;;;5011073;28;20072;-53
2023/07/31 07:15:22;;;;;;;8.40;3.60;;;17.10;99.90;;;;;;5011208;28;20018;-53
2023/07/31 07:17:48;;;;;;;7.95;3.35;;;17.10;99.90;;;;;;5011545;28;20026;-53
2023/07/31 07:20:13;;;;;;;8.13;3.03;;;17.00;99.90;;;;;;5011359;28;20489;-51
2023/07/31 07:22:39;;;;;;;6.90;2.97;;;17.00;99.90;;;;;;5011036;28;20037;-53
2023/07/31 07:25:05;;;;;;;7.65;3.22;;;17.00;99.90;;;;;;5011100;28;20022;-53
2023/07/31 07:27:31;;;;;;;6.30;2.50;;;17.00;99.90;;;;;;5011264;28;20045;-53
2023/07/31 07:29:56;;;;;;;8.43;3.20;;;17.00;99.90;;;;;;5011251;28;20026;-53
2023/07/31 07:32:22;;;;;;;6.85;2.95;;;17.00;99.90;;;;;;5010870;28;20084;-50
2023/07/31 07:34:48;;;;;;;5.60;2.78;;;16.90;99.90;;;;;;5010883;28;20057;-53
2023/07/31 07:37:14;;;;;;;7.88;2.85;;;16.90;99.90;;;;;;5011148;28;20120;-53
2023/07/31 07:39:40;;;;;;;7.10;3.13;;;16.90;99.90;;;;;;5011271;28;20129;-50
2023/07/31 07:42:06;;;;;;;7.28;3.22;;;16.90;99.90;;;;;;5010862;28;20037;-54
2023/07/31 07:44:32;;;;;;;6.97;3.08;;;16.90;99.90;;;;;;5010961;28;20029;-53
2023/07/31 07:46:57;;;;;;;7.70;3.60;;;16.90;99.90;;;;;;5011104;28;20255;-53
2023/07/31 07:49:23;;;;;;;7.38;3.22;;;16.90;99.90;;;;;;5014644;28;20038;-51
2023/07/31 07:51:49;;;;;;;7.65;3.90;;;16.90;99.90;;;;;;5014705;28;20037;-53
2023/07/31 07:54:16;;;;;;;7.53;3.83;;;16.80;99.90;;;;;;5014385;28;20083;-53
2023/07/31 07:56:42;;;;;;;7.93;2.88;;;16.80;99.90;;;;;;5014827;28;20475;-51
2023/07/31 07:59:08;;;;;;;8.32;3.70;;;16.80;99.90;;;;;;5014677;28;20034;-53
2023/07/31 08:01:34;;;;;;;7.78;3.25;;;16.70;99.90;;;;;;5014560;28;20095;-54
2023/07/31 08:04:00;;;;;;;4.68;2.50;;;16.70;99.90;;;;;;5014424;28;20030;-54
2023/07/31 08:06:25;;;;;;;7.53;2.35;;;16.60;99.90;;;;;;5014602;28;20086;-54
2023/07/31 08:08:51;;;;;;;7.53;3.08;;;16.70;99.90;;;;;;5014508;28;20114;-53
2023/07/31 08:11:17;;;;;;;5.78;2.42;;;16.70;99.90;;;;;;5014701;28;20032;-54
2023/07/31 08:13:42;;;;;;;7.50;2.50;;;16.70;99.90;;;;;;5014466;28;20101;-53
2023/07/31 08:16:08;;;;;;;4.60;2.30;;;16.70;99.90;;;;;;5014279;28;20034;-54
2023/07/31 08:18:34;;;;;;;3.75;2.20;;;16.70;99.90;;;;;;5014401;28;20042;-53
2023/07/31 08:21:01;;;;;;;4.88;2.22;;;16.70;99.90;;;;;;5014283;28;20033;-52
2023/07/31 08:23:26;;;;;;;7.20;2.35;;;16.70;99.90;;;;;;5013977;28;20034;-54
2023/07/31 08:25:52;;;;;;;4.55;2.10;;;16.60;99.90;;;;;;5014350;28;20165;-49
2023/07/31 08:28:17;;;;;;;4.28;2.33;;;16.60;99.90;;;;;;5014026;28;20033;-52
2023/07/31 08:30:43;;;;;;;4.13;1.85;;;16.60;99.90;;;;;;5014042;28;20034;-52
2023/07/31 08:33:09;;;;;;;4.68;1.92;;;16.60;99.90;;;;;;5013957;28;20046;-54
2023/07/31 08:35:34;;;;;;;6.95;2.50;;;16.50;99.90;;;;;;5014103;28;20053;-54
2023/07/31 08:38:00;;;;;;;5.60;2.03;;;16.50;99.90;;;;;;5014134;28;20067;-52
2023/07/31 08:40:26;;;;;;;5.25;2.40;;;16.60;99.90;;;;;;5014047;28;20110;-54
2023/07/31 08:42:54;;;;;;;4.53;2.05;;;16.60;99.90;;;;;;5014086;28;20478;-53
2023/07/31 08:45:20;;;;;;;6.85;2.67;;;16.60;99.90;;;;;;5013677;28;20034;-54
2023/07/31 08:47:48;;;;;;;5.72;2.28;;;16.60;99.90;;;;;;5014116;28;20030;-53
2023/07/31 08:50:15;;;;;;;5.90;2.13;;;16.60;99.90;;;;;;5014067;28;20044;-54
2023/07/31 08:52:41;;;;;;;7.25;3.45;;;16.60;99.90;;;;;;5013449;28;20067;-54
2023/07/31 08:55:07;;;;;;;6.53;3.28;;;16.60;99.90;;;;;;5013706;28;20519;-54
2023/07/31 08:57:35;;;;;;;5.97;3.10;;;16.60;99.90;;;;;;5013721;28;20026;-54
2023/07/31 09:00:05;;;;;;;9.95;4.22;;;16.60;99.90;;;;;;5012665;28;20145;-52
2023/07/31 09:03:02;;;;;;;8.85;3.50;;;16.60;99.90;;;;;;5013816;28;20267;-49
2023/07/31 09:05:30;;;;;;;4.82;2.60;;;16.60;99.90;;;;;;5028938;28;20078;-51
2023/07/31 09:07:57;;;;;;;9.45;2.70;;;16.60;99.90;;;;;;5013802;28;20475;-49
2023/07/31 09:10:23;;;;;;;5.20;2.55;;;16.60;99.90;;;;;;5013884;28;20062;-49
2023/07/31 09:12:50;;;;;;;7.55;2.22;;;16.60;99.90;;;;;;5013589;28;20033;-53
2023/07/31 09:15:17;;;;;;;6.63;2.25;;;16.60;99.90;;;;;;5013565;28;20037;-53
2023/07/31 09:17:42;;;;;;;4.55;1.60;;;16.60;99.90;;;;;;5013806;28;20050;-50
2023/07/31 09:20:19;;;;;;;4.88;2.30;;;16.60;99.90;;;;;;5013751;28;20509;-53
2023/07/31 09:22:46;;;;;;;4.82;2.15;;;16.60;99.90;;;;;;5013463;28;20033;-50
2023/07/31 09:25:20;;;;;;;6.05;2.50;;;16.60;99.90;;;;;;5013190;28;20026;-52
2023/07/31 09:27:48;;;;;;;5.65;2.50;;;16.70;99.90;;;;;;5013426;28;20034;-52
2023/07/31 09:30:15;;;;;;;4.53;2.30;;;16.70;99.90;;;;;;5013191;28;20034;-54
2023/07/31 09:32:40;;;;;;;5.35;2.35;;;16.70;99.90;;;;;;5012827;28;20025;-52
2023/07/31 09:35:32;;;;;;;6.85;2.15;;;16.70;99.90;;;;;;5012974;28;20037;-52
2023/07/31 09:38:02;;;;;;;4.40;1.90;;;16.70;99.90;;;;;;5013132;28;20041;-50
2023/07/31 09:40:33;;;;;;;4.70;2.28;;;16.80;99.90;;;;;;5013229;28;20021;-52
2023/07/31 09:43:01;;;;;;;3.35;2.08;;;16.80;99.90;;;;;;5013058;28;20034;-52
2023/07/31 09:45:27;;;;;;;3.78;1.60;;;16.80;99.90;;;;;;5012442;28;20049;-51
2023/07/31 09:47:54;;;;;;;6.53;2.60;;;16.90;99.90;;;;;;5012481;28;20034;-51
2023/07/31 09:50:24;;;;;;;4.20;2.13;;;17.00;99.90;;;;;;5012458;28;20118;-49
2023/07/31 09:52:50;;;;;;;5.50;2.00;;;16.90;99.90;;;;;;5012074;28;20141;-51
2023/07/31 09:55:16;;;;;;;4.85;2.33;;;16.90;99.90;;;;;;5012215;28;20088;-49
2023/07/31 09:57:45;;;;;;;4.63;1.73;;;16.90;99.90;;;;;;5027639;28;20026;-54
2023/07/31 10:00:13;;;;;;;5.40;1.80;;;16.90;99.90;;;;;;5012501;28;20081;-52
2023/07/31 10:02:41;;;;;;;11.18;5.68;;;16.90;99.90;;;;;;5012412;28;20109;-53
2023/07/31 10:05:07;;;;;;;4.18;2.20;;;17.00;99.90;;;;;;5012444;28;20498;-52
2023/07/31 10:07:40;;;;;;;4.60;1.90;;;17.00;99.90;;;;;;5012522;28;20022;-53
2023/07/31 10:10:09;;;;;;;5.53;2.10;;;17.00;99.90;;;;;;5011950;28;20080;-53
2023/07/31 10:12:36;;;;;;;6.60;2.45;;;17.00;99.90;;;;;;5012053;28;20030;-51
2023/07/31 10:15:02;;;;;;;4.85;2.30;;;17.00;99.90;;;;;;5011785;28;20030;-54
2023/07/31 10:17:30;;;;;;;4.95;2.88;;;17.00;99.90;;;;;;5012063;28;20041;-49
2023/07/31 10:19:59;;;;;;;5.57;2.78;;;17.00;99.90;;;;;;5012068;28;20117;-53
2023/07/31 10:22:25;;;;;;;6.43;3.30;;;17.00;99.90;;;;;;5011738;28;20042;-50
2023/07/31 10:24:54;;;;;;;5.03;2.67;;;17.00;99.90;;;;;;5011863;28;20120;-48
2023/07/31 10:27:20;;;;;;;7.65;3.30;;;17.00;99.90;;;;;;5012074;28;20022;-48
2023/07/31 10:29:47;;;;;;;17.98;8.95;;;17.10;99.90;;;;;;5011871;28;20564;-50
2023/07/31 10:32:16;;;;;;;18.60;9.25;;;17.10;99.90;;;;;;5011693;28;20038;-50
2023/07/31 10:34:42;;;;;;;;;;;17.10;99.90;;;;;;5012220;28;20072;-51
2023/07/31 10:37:28;;;;;;;8.60;4.53;;;17.20;99.90;;;;;;5011945;28;20004;-49
2023/07/31 10:40:08;;;;;;;7.60;4.10;;;17.30;99.90;;;;;;5011842;28;20030;-54
2023/07/31 10:42:37;;;;;;;11.73;4.57;;;17.40;99.90;;;;;;5011517;28;20054;-49
2023/07/31 10:45:10;;;;;;;11.00;4.75;;;17.40;99.90;;;;;;5011728;28;20025;-49
2023/07/31 10:47:46;;;;;;;11.50;4.70;;;17.50;99.90;;;;;;5011736;28;20375;-49
2023/07/31 10:50:23;;;;;;;7.65;4.75;;;17.50;99.90;;;;;;5011765;28;20752;-52
2023/07/31 10:52:56;;;;;;;12.52;5.82;;;17.70;99.90;;;;;;5011334;28;20091;-51
2023/07/31 10:55:26;;;;;;;10.32;4.60;;;17.70;99.90;;;;;;5011500;28;20032;-51
2023/07/31 10:57:56;;;;;;;9.68;4.63;;;17.80;99.90;;;;;;5011527;28;20506;-50
2023/07/31 11:00:23;;;;;;;8.00;3.75;;;17.80;99.90;;;;;;5011771;28;20067;-51
2023/07/31 11:03:07;;;;;;;7.70;3.33;;;17.80;99.90;;;;;;5010992;28;20570;-49
2023/07/31 11:06:01;;;;;;;9.57;4.32;;;17.80;99.90;;;;;;5011337;28;20494;-52
2023/07/31 11:08:31;;;;;;;9.35;3.80;;;17.90;99.90;;;;;;5011543;28;20030;-52
2023/07/31 11:11:03;;;;;;;4.57;2.53;;;17.90;99.90;;;;;;5011401;28;20045;-50
2023/07/31 11:13:29;;;;;;;6.07;2.65;;;17.90;99.90;;;;;;5011149;28;20025;-53
2023/07/31 11:15:54;;;;;;;4.85;2.40;;;17.90;99.90;;;;;;5026342;28;20386;-50
2023/07/31 11:18:20;;;;;;;8.18;2.60;;;18.00;99.90;;;;;;5011277;28;20057;-50
2023/07/31 11:20:46;;;;;;;6.05;2.70;;;18.00;99.90;;;;;;5011308;28;20446;-53
2023/07/31 11:23:12;;;;;;;9.82;3.38;;;18.10;99.90;;;;;;5012447;28;20061;-54
2023/07/31 11:25:42;;;;;;;7.38;2.88;;;18.10;99.90;;;;;;5001582;28;20124;-54
2023/07/31 11:28:18;;;;;;;7.35;2.47;;;18.10;99.90;;;;;;4995752;28;20038;-48
2023/07/31 11:30:46;;;;;;;4.72;2.28;;;18.10;99.90;;;;;;4999758;28;20026;-53
2023/07/31 11:33:13;;;;;;;5.22;2.45;;;18.10;99.90;;;;;;5004974;28;20031;-51
2023/07/31 11:35:48;;;;;;;9.07;3.03;;;18.20;99.90;;;;;;5004280;28;20037;-53
2023/07/31 11:38:32;;;;;;;7.18;2.78;;;18.20;99.90;;;;;;5004840;28;20073;-52
2023/07/31 11:41:00;;;;;;;7.47;3.08;;;18.20;99.90;;;;;;5007697;28;20045;-53
2023/07/31 11:43:26;;;;;;;5.17;2.50;;;18.30;99.90;;;;;;5004581;28;20037;-51
2023/07/31 11:45:57;;;;;;;5.82;3.30;;;18.30;99.90;;;;;;4997427;28;20430;-53
2023/07/31 11:48:27;;;;;;;7.40;3.20;;;18.30;99.90;;;;;;4994721;28;20030;-52
2023/07/31 11:50:56;;;;;;;5.90;3.05;;;18.30;99.90;;;;;;4994704;28;20042;-50
2023/07/31 11:53:28;;;;;;;7.18;3.42;;;18.30;99.90;;;;;;4994807;28;20076;-53
2023/07/31 11:55:55;;;;;;;6.50;2.83;;;18.20;99.90;;;;;;4994126;28;20031;-49
2023/07/31 11:58:22;;;;;;;4.53;2.72;;;18.10;99.90;;;;;;5013831;28;20458;-51
2023/07/31 12:00:49;;;;;;;5.70;2.20;;;18.00;99.90;;;;;;5015264;28;20036;-50
2023/07/31 12:03:15;;;;;;;4.85;2.15;;;18.00;99.90;;;;;;5014277;28;20025;-49
2023/07/31 12:05:41;;;;;;;6.60;3.33;;;17.90;99.90;;;;;;5014269;28;20124;-53
2023/07/31 12:08:11;;;;;;;3.97;2.25;;;17.90;99.90;;;;;;5014617;28;20057;-52
2023/07/31 12:10:38;;;;;;;4.15;2.10;;;17.90;99.90;;;;;;5014395;28;20524;-54
2023/07/31 12:13:15;;;;;;;4.93;1.85;;;17.90;99.90;;;;;;5014187;28;20467;-52
2023/07/31 12:15:43;;;;;;;8.02;2.58;;;17.90;99.90;;;;;;5013785;28;20117;-51
2023/07/31 12:18:19;;;;;;;4.28;1.88;;;17.90;99.90;;;;;;5014441;28;20047;-52
2023/07/31 12:20:54;;;;;;;5.43;2.67;;;17.90;99.90;;;;;;5014304;28;20363;-49
2023/07/31 12:23:30;;;;;;;5.70;2.58;;;18.00;99.90;;;;;;5013529;28;20034;-53
2023/07/31 12:26:08;;;;;;;5.28;2.75;;;18.00;99.90;;;;;;5012284;28;20033;-52
2023/07/31 12:28:45;;;;;;;8.88;3.33;;;18.10;99.90;;;;;;5013758;28;20433;-49
2023/07/31 12:31:17;;;;;;;5.50;2.58;;;18.20;99.90;;;;;;5014332;28;20057;-51
2023/07/31 12:33:43;;;;;;;6.32;2.25;;;18.20;99.90;;;;;;5013585;28;20399;-52
2023/07/31 12:36:16;;;;;;;4.57;2.60;;;18.30;99.90;;;;;;5013814;28;20026;-54
2023/07/31 12:38:42;;;;;;;6.28;2.70;;;18.50;99.90;;;;;;5012831;28;20042;-53
2023/07/31 12:41:08;;;;;;;7.35;3.35;;;18.50;99.90;;;;;;5013661;28;20081;-49
2023/07/31 12:43:38;;;;;;;4.68;2.20;;;18.60;99.90;;;;;;5013723;28;20038;-53
2023/07/31 12:46:04;;;;;;;4.78;2.53;;;18.60;99.90;;;;;;5013603;28;20030;-50